sensor_id;sensor_type;location;lat;lon;timestamp;pressure;altitude;pressure_sealevel;temperature;humidity
58686;BME280;44465;53.206;-6.106;2022-12-07T00:01:26;102658.09;;;19.64;53.40
58686;BME280;44465;53.206;-6.106;2022-12-07T00:03:54;102673.03;;;19.74;53.31
58686;BME280;44465;53.206;-6.106;2022-12-07T00:06:22;102672.16;;;19.74;53.47
58686;BME280;44465;53.206;-6.106;2022-12-07T00:08:48;102669.56;;;19.69;53.54
58686;BME280;44465;53.206;-6.106;2022-12-07T00:11:15;102675.63;;;19.79;53.46
58686;BME280;44465;53.206;-6.106;2022-12-07T00:13:42;102673.88;;;19.76;53.50
58686;BME280;44465;53.206;-6.106;2022-12-07T00:16:15;102664.94;;;19.79;53.58
58686;BME280;44465;53.206;-6.106;2022-12-07T00:18:42;102662.25;;;19.77;53.46
58686;BME280;44465;53.206;-6.106;2022-12-07T00:21:17;102670.22;;;19.80;53.63
58686;BME280;44465;53.206;-6.106;2022-12-07T00:23:45;102638.47;;;19.65;53.43
58686;BME280;44465;53.206;-6.106;2022-12-07T00:26:16;102666.88;;;19.71;53.53
58686;BME280;44465;53.206;-6.106;2022-12-07T00:29:18;102670.28;;;19.77;53.48
58686;BME280;44465;53.206;-6.106;2022-12-07T00:31:46;102647.28;;;19.70;53.43
58686;BME280;44465;53.206;-6.106;2022-12-07T00:34:18;102642.88;;;19.66;53.38
58686;BME280;44465;53.206;-6.106;2022-12-07T00:36:44;102646.50;;;19.65;53.43
58686;BME280;44465;53.206;-6.106;2022-12-07T00:39:30;102655.25;;;19.72;53.21
58686;BME280;44465;53.206;-6.106;2022-12-07T00:41:58;102598.75;;;19.46;53.29
58686;BME280;44465;53.206;-6.106;2022-12-07T00:44:24;102642.84;;;19.69;53.38
58686;BME280;44465;53.206;-6.106;2022-12-07T00:46:52;102649.81;;;19.76;53.50
58686;BME280;44465;53.206;-6.106;2022-12-07T00:49:18;102634.84;;;19.67;53.19
58686;BME280;44465;53.206;-6.106;2022-12-07T00:51:48;102593.50;;;19.43;53.00
58686;BME280;44465;53.206;-6.106;2022-12-07T00:54:16;102589.09;;;19.39;53.47
58686;BME280;44465;53.206;-6.106;2022-12-07T00:56:41;102642.84;;;19.69;53.23
58686;BME280;44465;53.206;-6.106;2022-12-07T00:59:07;102646.41;;;19.69;53.21
58686;BME280;44465;53.206;-6.106;2022-12-07T01:01:38;102654.22;;;19.79;53.24
58686;BME280;44465;53.206;-6.106;2022-12-07T01:04:03;102573.31;;;19.28;53.02
58686;BME280;44465;53.206;-6.106;2022-12-07T01:06:30;102655.16;;;19.76;53.42
58686;BME280;44465;53.206;-6.106;2022-12-07T01:08:59;102657.81;;;19.76;53.25
58686;BME280;44465;53.206;-6.106;2022-12-07T01:11:28;102650.72;;;19.77;53.30
58686;BME280;44465;53.206;-6.106;2022-12-07T01:13:55;102646.31;;;19.73;53.36
58686;BME280;44465;53.206;-6.106;2022-12-07T01:16:23;102638.44;;;19.66;53.20
58686;BME280;44465;53.206;-6.106;2022-12-07T01:18:55;102652.53;;;19.75;53.33
58686;BME280;44465;53.206;-6.106;2022-12-07T01:21:28;102655.16;;;19.76;53.19
58686;BME280;44465;53.206;-6.106;2022-12-07T01:24:27;102648.97;;;19.74;53.33
58686;BME280;44465;53.206;-6.106;2022-12-07T01:26:53;102621.66;;;19.60;53.19
58686;BME280;44465;53.206;-6.106;2022-12-07T01:29:19;102642.72;;;19.75;53.09
58686;BME280;44465;53.206;-6.106;2022-12-07T01:31:57;102651.56;;;19.77;53.06
58686;BME280;44465;53.206;-6.106;2022-12-07T01:34:24;102647.31;;;19.67;53.26
58686;BME280;44465;53.206;-6.106;2022-12-07T01:36:54;102647.22;;;19.72;53.36
58686;BME280;44465;53.206;-6.106;2022-12-07T01:39:21;102657.00;;;19.74;53.18
58686;BME280;44465;53.206;-6.106;2022-12-07T01:41:48;102626.84;;;19.66;53.32
58686;BME280;44465;53.206;-6.106;2022-12-07T01:44:28;102624.38;;;19.57;53.07
58686;BME280;44465;53.206;-6.106;2022-12-07T01:47:00;102628.56;;;19.70;53.28
58686;BME280;44465;53.206;-6.106;2022-12-07T01:49:47;102640.97;;;19.74;53.39
58686;BME280;44465;53.206;-6.106;2022-12-07T01:52:50;102637.44;;;19.72;53.15
58686;BME280;44465;53.206;-6.106;2022-12-07T01:55:17;102608.13;;;19.66;53.40
58686;BME280;44465;53.206;-6.106;2022-12-07T01:57:47;102635.66;;;19.71;53.30
58686;BME280;44465;53.206;-6.106;2022-12-07T02:00:31;102642.94;;;19.64;53.54
58686;BME280;44465;53.206;-6.106;2022-12-07T02:03:17;102643.69;;;19.71;53.44
58686;BME280;44465;53.206;-6.106;2022-12-07T02:05:51;102611.84;;;19.60;53.46
58686;BME280;44465;53.206;-6.106;2022-12-07T02:08:18;102627.66;;;19.71;53.34
58686;BME280;44465;53.206;-6.106;2022-12-07T02:10:44;102627.72;;;19.68;53.25
58686;BME280;44465;53.206;-6.106;2022-12-07T02:13:24;102633.00;;;19.71;53.16
58686;BME280;44465;53.206;-6.106;2022-12-07T02:21:33;102633.84;;;19.73;53.23
58686;BME280;44465;53.206;-6.106;2022-12-07T02:30:28;102628.50;;;19.73;53.15
58686;BME280;44465;53.206;-6.106;2022-12-07T02:34:11;102624.94;;;19.74;52.99
58686;BME280;44465;53.206;-6.106;2022-12-07T02:36:12;102632.94;;;19.74;53.11
58686;BME280;44465;53.206;-6.106;2022-12-07T02:39:01;102598.50;;;19.59;53.12
58686;BME280;44465;53.206;-6.106;2022-12-07T02:41:40;102599.41;;;19.59;52.99
58686;BME280;44465;53.206;-6.106;2022-12-07T02:44:20;102625.78;;;19.75;53.08
58686;BME280;44465;53.206;-6.106;2022-12-07T02:47:11;102604.66;;;19.62;53.03
58686;BME280;44465;53.206;-6.106;2022-12-07T02:49:38;102605.59;;;19.60;53.21
58686;BME280;44465;53.206;-6.106;2022-12-07T02:52:05;102616.09;;;19.69;53.29
58686;BME280;44465;53.206;-6.106;2022-12-07T02:54:31;102623.97;;;19.77;53.09
58686;BME280;44465;53.206;-6.106;2022-12-07T03:02:23;102615.06;;;19.76;53.02
58686;BME280;44465;53.206;-6.106;2022-12-07T03:08:13;102611.50;;;19.76;53.25
58686;BME280;44465;53.206;-6.106;2022-12-07T03:11:17;102590.28;;;19.68;53.17
58686;BME280;44465;53.206;-6.106;2022-12-07T03:14:24;102595.53;;;19.73;53.08
58686;BME280;44465;53.206;-6.106;2022-12-07T03:16:57;102602.53;;;19.80;53.03
58686;BME280;44465;53.206;-6.106;2022-12-07T03:19:31;102607.03;;;19.76;53.12
58686;BME280;44465;53.206;-6.106;2022-12-07T03:22:07;102588.47;;;19.70;53.05
58686;BME280;44465;53.206;-6.106;2022-12-07T03:24:50;102585.75;;;19.73;53.12
58686;BME280;44465;53.206;-6.106;2022-12-07T03:27:32;102597.25;;;19.77;53.05
58686;BME280;44465;53.206;-6.106;2022-12-07T03:30:34;102594.63;;;19.75;53.07
58686;BME280;44465;53.206;-6.106;2022-12-07T03:33:07;102561.94;;;19.61;53.16
58686;BME280;44465;53.206;-6.106;2022-12-07T03:35:40;102539.91;;;19.49;53.03
58686;BME280;44465;53.206;-6.106;2022-12-07T03:38:36;102580.44;;;19.70;53.24
58686;BME280;44465;53.206;-6.106;2022-12-07T03:41:34;102575.09;;;19.70;53.22
58686;BME280;44465;53.206;-6.106;2022-12-07T03:44:06;102585.59;;;19.79;53.18
58686;BME280;44465;53.206;-6.106;2022-12-07T03:49:52;102582.06;;;19.77;53.16
58686;BME280;44465;53.206;-6.106;2022-12-07T03:52:43;102587.41;;;19.77;53.05
58686;BME280;44465;53.206;-6.106;2022-12-07T03:55:35;102563.53;;;19.69;53.11
58686;BME280;44465;53.206;-6.106;2022-12-07T03:58:09;102580.25;;;19.79;52.94
58686;BME280;44465;53.206;-6.106;2022-12-07T04:00:37;102580.19;;;19.82;53.16
58686;BME280;44465;53.206;-6.106;2022-12-07T04:03:03;102581.09;;;19.81;52.99
58686;BME280;44465;53.206;-6.106;2022-12-07T04:05:29;102580.25;;;19.79;52.96
58686;BME280;44465;53.206;-6.106;2022-12-07T04:07:55;102555.63;;;19.65;52.93
58686;BME280;44465;53.206;-6.106;2022-12-07T04:10:20;102578.38;;;19.84;52.90
58686;BME280;44465;53.206;-6.106;2022-12-07T04:12:46;102537.88;;;19.61;53.25
58686;BME280;44465;53.206;-6.106;2022-12-07T04:15:12;102542.28;;;19.63;53.17
58686;BME280;44465;53.206;-6.106;2022-12-07T04:17:38;102558.06;;;19.76;53.17
58686;BME280;44465;53.206;-6.106;2022-12-07T04:20:08;102569.53;;;19.81;52.84
58686;BME280;44465;53.206;-6.106;2022-12-07T04:22:34;102573.00;;;19.86;52.95
58686;BME280;44465;53.206;-6.106;2022-12-07T04:25:00;102532.53;;;19.61;53.01
58686;BME280;44465;53.206;-6.106;2022-12-07T04:27:25;102566.81;;;19.82;52.99
58686;BME280;44465;53.206;-6.106;2022-12-07T04:29:51;102559.81;;;19.77;52.97
58686;BME280;44465;53.206;-6.106;2022-12-07T04:32:16;102556.16;;;19.81;52.80
58686;BME280;44465;53.206;-6.106;2022-12-07T04:34:42;102542.16;;;19.69;53.19
58686;BME280;44465;53.206;-6.106;2022-12-07T04:37:07;102513.13;;;19.52;52.81
58686;BME280;44465;53.206;-6.106;2022-12-07T04:39:36;102559.66;;;19.84;52.83
58686;BME280;44465;53.206;-6.106;2022-12-07T04:42:05;102485.72;;;19.43;53.00
58686;BME280;44465;53.206;-6.106;2022-12-07T04:44:32;102558.78;;;19.86;52.89
58686;BME280;44465;53.206;-6.106;2022-12-07T04:46:58;102497.19;;;19.48;53.15
58686;BME280;44465;53.206;-6.106;2022-12-07T04:49:42;102510.19;;;19.65;52.88
58686;BME280;44465;53.206;-6.106;2022-12-07T04:52:07;102552.47;;;19.88;53.15
58686;BME280;44465;53.206;-6.106;2022-12-07T04:54:36;102532.13;;;19.79;53.04
58686;BME280;44465;53.206;-6.106;2022-12-07T04:57:02;102487.28;;;19.53;52.68
58686;BME280;44465;53.206;-6.106;2022-12-07T04:59:27;102453.91;;;19.30;52.79
58686;BME280;44465;53.206;-6.106;2022-12-07T05:01:54;102478.56;;;19.45;53.04
58686;BME280;44465;53.206;-6.106;2022-12-07T05:04:19;102471.44;;;19.44;52.87
58686;BME280;44465;53.206;-6.106;2022-12-07T05:06:45;102549.81;;;19.85;52.71
58686;BME280;44465;53.206;-6.106;2022-12-07T05:09:13;102431.00;;;19.20;52.62
58686;BME280;44465;53.206;-6.106;2022-12-07T05:11:39;102474.00;;;19.50;53.00
58686;BME280;44465;53.206;-6.106;2022-12-07T05:14:17;102542.72;;;19.86;52.79
58686;BME280;44465;53.206;-6.106;2022-12-07T05:16:45;102490.84;;;19.52;52.94
58686;BME280;44465;53.206;-6.106;2022-12-07T05:19:12;102436.22;;;19.25;52.63
58686;BME280;44465;53.206;-6.106;2022-12-07T05:21:38;102512.78;;;19.68;53.05
58686;BME280;44465;53.206;-6.106;2022-12-07T05:24:25;102512.00;;;19.63;52.71
58686;BME280;44465;53.206;-6.106;2022-12-07T05:26:51;102518.22;;;19.65;53.05
58686;BME280;44465;53.206;-6.106;2022-12-07T05:29:16;102444.34;;;19.21;52.82
58686;BME280;44465;53.206;-6.106;2022-12-07T05:31:43;102504.91;;;19.62;52.74
58686;BME280;44465;53.206;-6.106;2022-12-07T05:34:11;102538.31;;;19.81;52.80
58686;BME280;44465;53.206;-6.106;2022-12-07T05:36:40;102511.09;;;19.64;52.77
58686;BME280;44465;53.206;-6.106;2022-12-07T05:39:06;102544.41;;;19.90;52.84
58686;BME280;44465;53.206;-6.106;2022-12-07T05:41:35;102498.66;;;19.63;52.75
58686;BME280;44465;53.206;-6.106;2022-12-07T05:44:19;102539.22;;;19.80;52.91
58686;BME280;44465;53.206;-6.106;2022-12-07T05:46:48;102530.47;;;19.75;52.81
58686;BME280;44465;53.206;-6.106;2022-12-07T05:49:13;102532.19;;;19.76;52.77
58686;BME280;44465;53.206;-6.106;2022-12-07T05:51:39;102553.38;;;19.87;52.89
58686;BME280;44465;53.206;-6.106;2022-12-07T05:54:04;102515.38;;;19.71;53.00
58686;BME280;44465;53.206;-6.106;2022-12-07T05:56:30;102545.34;;;19.87;52.78
58686;BME280;44465;53.206;-6.106;2022-12-07T05:58:55;102519.75;;;19.75;52.84
58686;BME280;44465;53.206;-6.106;2022-12-07T06:01:40;102551.56;;;19.88;52.65
58686;BME280;44465;53.206;-6.106;2022-12-07T06:04:06;102510.16;;;19.66;52.80
58686;BME280;44465;53.206;-6.106;2022-12-07T06:06:34;102539.19;;;19.83;52.68
58686;BME280;44465;53.206;-6.106;2022-12-07T06:09:00;102538.25;;;19.84;52.87
58686;BME280;44465;53.206;-6.106;2022-12-07T06:11:26;102503.09;;;19.62;52.95
58686;BME280;44465;53.206;-6.106;2022-12-07T06:14:10;102534.66;;;19.87;52.59
58686;BME280;44465;53.206;-6.106;2022-12-07T06:16:38;102483.66;;;19.56;52.96
58686;BME280;44465;53.206;-6.106;2022-12-07T06:19:04;102535.53;;;19.88;52.79
58686;BME280;44465;53.206;-6.106;2022-12-07T06:21:29;102521.38;;;19.82;52.86
58686;BME280;44465;53.206;-6.106;2022-12-07T06:23:55;102525.75;;;19.85;52.76
58686;BME280;44465;53.206;-6.106;2022-12-07T06:26:21;102499.31;;;19.73;52.78
58686;BME280;44465;53.206;-6.106;2022-12-07T06:28:48;102520.47;;;19.82;52.51
58686;BME280;44465;53.206;-6.106;2022-12-07T06:31:14;102486.13;;;19.65;52.88
58686;BME280;44465;53.206;-6.106;2022-12-07T06:33:41;102515.06;;;19.85;52.90
58686;BME280;44465;53.206;-6.106;2022-12-07T06:36:07;102487.97;;;19.63;52.81
58686;BME280;44465;53.206;-6.106;2022-12-07T06:38:33;102515.97;;;19.84;52.67
58686;BME280;44465;53.206;-6.106;2022-12-07T06:40:59;102518.66;;;19.86;52.85
58686;BME280;44465;53.206;-6.106;2022-12-07T06:43:25;102521.34;;;19.86;52.73
58686;BME280;44465;53.206;-6.106;2022-12-07T06:45:50;102508.91;;;19.81;52.76
58686;BME280;44465;53.206;-6.106;2022-12-07T06:48:16;102469.31;;;19.60;52.96
58686;BME280;44465;53.206;-6.106;2022-12-07T06:50:45;102509.78;;;19.83;52.81
58686;BME280;44465;53.206;-6.106;2022-12-07T06:53:16;102510.56;;;19.89;52.60
58686;BME280;44465;53.206;-6.106;2022-12-07T06:55:42;102514.16;;;19.88;52.75
58686;BME280;44465;53.206;-6.106;2022-12-07T06:58:08;102501.75;;;19.83;52.54
58686;BME280;44465;53.206;-6.106;2022-12-07T07:00:36;102435.00;;;19.41;52.67
58686;BME280;44465;53.206;-6.106;2022-12-07T07:03:04;102491.19;;;19.77;52.83
58686;BME280;44465;53.206;-6.106;2022-12-07T07:05:30;102493.03;;;19.74;52.61
58686;BME280;44465;53.206;-6.106;2022-12-07T07:07:55;102510.59;;;19.87;52.79
58686;BME280;44465;53.206;-6.106;2022-12-07T07:10:21;102510.66;;;19.86;52.82
58686;BME280;44465;53.206;-6.106;2022-12-07T07:12:46;102493.94;;;19.74;52.56
58686;BME280;44465;53.206;-6.106;2022-12-07T07:15:13;102464.75;;;19.65;52.69
58686;BME280;44465;53.206;-6.106;2022-12-07T07:17:39;102496.38;;;19.87;52.79
58686;BME280;44465;53.206;-6.106;2022-12-07T07:20:05;102499.06;;;19.83;52.98
58686;BME280;44465;53.206;-6.106;2022-12-07T07:22:32;102467.44;;;19.65;52.80
58686;BME280;44465;53.206;-6.106;2022-12-07T07:24:58;102502.63;;;19.86;52.77
58686;BME280;44465;53.206;-6.106;2022-12-07T07:27:39;102496.38;;;19.87;52.63
58686;BME280;44465;53.206;-6.106;2022-12-07T07:30:05;102476.91;;;19.78;52.74
58686;BME280;44465;53.206;-6.106;2022-12-07T07:32:33;102494.44;;;19.92;52.44
58686;BME280;44465;53.206;-6.106;2022-12-07T07:34:59;102485.72;;;19.83;52.67
58686;BME280;44465;53.206;-6.106;2022-12-07T07:37:26;102456.81;;;19.62;53.01
58686;BME280;44465;53.206;-6.106;2022-12-07T07:39:57;102493.84;;;19.77;52.83
58686;BME280;44465;53.206;-6.106;2022-12-07T07:42:22;102492.00;;;19.81;52.82
58686;BME280;44465;53.206;-6.106;2022-12-07T07:44:48;102463.00;;;19.64;52.71
58686;BME280;44465;53.206;-6.106;2022-12-07T07:47:13;102499.09;;;19.82;52.95
58686;BME280;44465;53.206;-6.106;2022-12-07T07:49:39;102491.28;;;19.74;52.87
58686;BME280;44465;53.206;-6.106;2022-12-07T07:52:05;102509.78;;;19.83;52.46
58686;BME280;44465;53.206;-6.106;2022-12-07T07:54:31;102505.28;;;19.84;52.95
58686;BME280;44465;53.206;-6.106;2022-12-07T07:56:58;102487.69;;;19.75;52.86
58686;BME280;44465;53.206;-6.106;2022-12-07T07:59:23;102503.53;;;19.83;52.92
58686;BME280;44465;53.206;-6.106;2022-12-07T08:01:51;102509.75;;;19.87;52.99
58686;BME280;44465;53.206;-6.106;2022-12-07T08:04:18;102497.38;;;19.79;52.83
58686;BME280;44465;53.206;-6.106;2022-12-07T08:06:47;102514.19;;;19.84;52.91
58686;BME280;44465;53.206;-6.106;2022-12-07T08:09:12;102492.19;;;19.73;52.91
58686;BME280;44465;53.206;-6.106;2022-12-07T08:11:38;102480.78;;;19.65;52.66
58686;BME280;44465;53.206;-6.106;2022-12-07T08:14:03;102515.13;;;19.82;53.08
58686;BME280;44465;53.206;-6.106;2022-12-07T08:16:29;102487.06;;;19.64;52.85
58686;BME280;44465;53.206;-6.106;2022-12-07T08:18:54;102520.47;;;19.82;52.66
58686;BME280;44465;53.206;-6.106;2022-12-07T08:21:24;102437.03;;;19.30;52.70
58686;BME280;44465;53.206;-6.106;2022-12-07T08:23:50;102461.69;;;19.43;52.88
58686;BME280;44465;53.206;-6.106;2022-12-07T08:26:16;102466.97;;;19.46;52.59
58686;BME280;44465;53.206;-6.106;2022-12-07T08:28:42;102490.66;;;19.61;52.72
58686;BME280;44465;53.206;-6.106;2022-12-07T08:31:16;102450.13;;;19.42;52.79
58686;BME280;44465;53.206;-6.106;2022-12-07T08:33:44;102516.94;;;19.81;52.61
58686;BME280;44465;53.206;-6.106;2022-12-07T08:36:11;102453.66;;;19.44;52.56
58686;BME280;44465;53.206;-6.106;2022-12-07T08:38:39;102464.13;;;19.53;52.70
58686;BME280;44465;53.206;-6.106;2022-12-07T08:41:05;102523.34;;;19.73;52.96
58686;BME280;44465;53.206;-6.106;2022-12-07T08:43:36;102528.59;;;19.77;52.92
58686;BME280;44465;53.206;-6.106;2022-12-07T08:46:34;102521.44;;;19.79;52.85
58686;BME280;44465;53.206;-6.106;2022-12-07T08:49:24;102517.09;;;19.75;52.69
58686;BME280;44465;53.206;-6.106;2022-12-07T08:51:52;102509.06;;;19.75;52.90
58686;BME280;44465;53.206;-6.106;2022-12-07T08:54:18;102514.31;;;19.78;52.75
58686;BME280;44465;53.206;-6.106;2022-12-07T08:56:50;102436.13;;;19.31;52.84
58686;BME280;44465;53.206;-6.106;2022-12-07T08:59:22;102509.78;;;19.82;52.71
58686;BME280;44465;53.206;-6.106;2022-12-07T09:01:48;102465.78;;;19.58;52.78
58686;BME280;44465;53.206;-6.106;2022-12-07T09:04:14;102447.44;;;19.42;52.59
58686;BME280;44465;53.206;-6.106;2022-12-07T09:06:44;102493.09;;;19.72;52.64
58686;BME280;44465;53.206;-6.106;2022-12-07T09:09:10;102506.19;;;19.84;52.84
58686;BME280;44465;53.206;-6.106;2022-12-07T09:11:44;102504.47;;;19.80;52.77
58686;BME280;44465;53.206;-6.106;2022-12-07T09:14:10;102491.22;;;19.76;53.00
58686;BME280;44465;53.206;-6.106;2022-12-07T09:16:39;102498.28;;;19.78;52.82
58686;BME280;44465;53.206;-6.106;2022-12-07T09:19:04;102451.72;;;19.49;52.84
58686;BME280;44465;53.206;-6.106;2022-12-07T09:21:30;102435.81;;;19.45;52.92
58686;BME280;44465;53.206;-6.106;2022-12-07T09:23:57;102478.88;;;19.70;52.59
58686;BME280;44465;53.206;-6.106;2022-12-07T09:26:22;102493.00;;;19.77;52.89
58686;BME280;44465;53.206;-6.106;2022-12-07T09:28:48;102490.31;;;19.77;52.86
58686;BME280;44465;53.206;-6.106;2022-12-07T09:31:13;102504.38;;;19.85;52.85
58686;BME280;44465;53.206;-6.106;2022-12-07T09:33:39;102503.53;;;19.83;52.65
58686;BME280;44465;53.206;-6.106;2022-12-07T09:36:16;102507.94;;;19.87;52.79
58686;BME280;44465;53.206;-6.106;2022-12-07T09:38:41;102506.25;;;19.81;52.95
58686;BME280;44465;53.206;-6.106;2022-12-07T09:41:08;102508.84;;;19.84;52.64
58686;BME280;44465;53.206;-6.106;2022-12-07T09:43:35;102518.63;;;19.87;52.74
58686;BME280;44465;53.206;-6.106;2022-12-07T09:46:04;102513.53;;;19.75;52.85
58686;BME280;44465;53.206;-6.106;2022-12-07T09:48:44;102429.94;;;19.29;52.97
58686;BME280;44465;53.206;-6.106;2022-12-07T09:51:22;102486.03;;;19.68;52.92
58686;BME280;44465;53.206;-6.106;2022-12-07T09:53:56;102522.25;;;19.83;52.58
58686;BME280;44465;53.206;-6.106;2022-12-07T09:56:24;102516.03;;;19.82;52.86
58686;BME280;44465;53.206;-6.106;2022-12-07T09:58:53;102487.81;;;19.69;52.77
58686;BME280;44465;53.206;-6.106;2022-12-07T10:01:23;102457.97;;;19.48;52.74
58686;BME280;44465;53.206;-6.106;2022-12-07T10:03:54;102476.38;;;19.62;52.83
58686;BME280;44465;53.206;-6.106;2022-12-07T10:06:21;102509.78;;;19.83;52.83
58686;BME280;44465;53.206;-6.106;2022-12-07T10:08:50;102514.13;;;19.89;52.52
58686;BME280;44465;53.206;-6.106;2022-12-07T10:11:17;102500.09;;;19.76;52.66
58686;BME280;44465;53.206;-6.106;2022-12-07T10:13:48;102502.53;;;19.89;52.60
58686;BME280;44465;53.206;-6.106;2022-12-07T10:16:54;102489.41;;;19.76;52.49
58686;BME280;44465;53.206;-6.106;2022-12-07T10:19:31;102495.59;;;19.80;52.87
58686;BME280;44465;53.206;-6.106;2022-12-07T10:22:15;102507.97;;;19.86;52.77
58686;BME280;44465;53.206;-6.106;2022-12-07T10:24:50;102489.41;;;19.76;52.48
58686;BME280;44465;53.206;-6.106;2022-12-07T10:27:22;102496.47;;;19.80;52.84
58686;BME280;44465;53.206;-6.106;2022-12-07T10:30:01;102507.06;;;19.87;52.63
58686;BME280;44465;53.206;-6.106;2022-12-07T10:32:56;102410.31;;;19.30;52.84
58686;BME280;44465;53.206;-6.106;2022-12-07T10:35:27;102471.78;;;19.69;52.63
58686;BME280;44465;53.206;-6.106;2022-12-07T10:38:18;102499.91;;;19.87;52.63
58686;BME280;44465;53.206;-6.106;2022-12-07T10:40:44;102480.38;;;19.82;52.64
58686;BME280;44465;53.206;-6.106;2022-12-07T10:49:05;102482.06;;;19.88;52.71
58686;BME280;44465;53.206;-6.106;2022-12-07T10:51:49;102461.78;;;19.77;52.53
58686;BME280;44465;53.206;-6.106;2022-12-07T11:00:15;102437.88;;;19.71;52.65
58686;BME280;44465;53.206;-6.106;2022-12-07T11:06:16;102466.97;;;19.87;52.82
58686;BME280;44465;53.206;-6.106;2022-12-07T11:09:03;102454.41;;;19.90;52.51
58686;BME280;44465;53.206;-6.106;2022-12-07T11:12:09;102453.53;;;19.88;52.43
58686;BME280;44465;53.206;-6.106;2022-12-07T11:21:09;102415.75;;;19.64;52.65
58686;BME280;44465;53.206;-6.106;2022-12-07T11:24:23;102430.78;;;19.70;52.73
58686;BME280;44465;53.206;-6.106;2022-12-07T11:27:30;102441.13;;;19.86;52.65
58686;BME280;44465;53.206;-6.106;2022-12-07T11:30:10;102437.59;;;19.83;52.59
58686;BME280;44465;53.206;-6.106;2022-12-07T11:35:48;102429.50;;;19.85;52.66
58686;BME280;44465;53.206;-6.106;2022-12-07T11:38:49;102403.81;;;19.79;52.88
58686;BME280;44465;53.206;-6.106;2022-12-07T11:41:28;102383.63;;;19.66;52.69
58686;BME280;44465;53.206;-6.106;2022-12-07T11:50:50;102426.81;;;19.88;52.55
58686;BME280;44465;53.206;-6.106;2022-12-07T11:52:58;102415.28;;;19.84;52.58
58686;BME280;44465;53.206;-6.106;2022-12-07T12:01:26;102409.88;;;19.88;52.54
58686;BME280;44465;53.206;-6.106;2022-12-07T12:06:39;102377.19;;;19.75;52.66
58686;BME280;44465;53.206;-6.106;2022-12-07T12:17:42;102386.81;;;19.82;52.74
58686;BME280;44465;53.206;-6.106;2022-12-07T12:23:42;102368.03;;;19.87;52.62
58686;BME280;44465;53.206;-6.106;2022-12-07T12:26:26;102375.06;;;19.91;52.56
58686;BME280;44465;53.206;-6.106;2022-12-07T12:28:58;102306.47;;;19.53;52.49
58686;BME280;44465;53.206;-6.106;2022-12-07T12:31:40;102367.06;;;19.89;52.70
58686;BME280;44465;53.206;-6.106;2022-12-07T12:34:31;102362.59;;;19.90;52.48
58686;BME280;44465;53.206;-6.106;2022-12-07T12:42:58;102323.69;;;19.76;52.65
58686;BME280;44465;53.206;-6.106;2022-12-07T12:45:32;102344.78;;;19.89;52.49
58686;BME280;44465;53.206;-6.106;2022-12-07T12:48:35;102328.84;;;19.86;52.50
58686;BME280;44465;53.206;-6.106;2022-12-07T12:51:38;102316.63;;;19.75;52.54
58686;BME280;44465;53.206;-6.106;2022-12-07T12:59:28;102334.09;;;19.89;52.53
58686;BME280;44465;53.206;-6.106;2022-12-07T13:13:29;102269.84;;;19.57;52.67
58686;BME280;44465;53.206;-6.106;2022-12-07T13:16:39;102255.72;;;19.52;52.58
58686;BME280;44465;53.206;-6.106;2022-12-07T13:28:15;102299.41;;;19.87;52.42
58686;BME280;44465;53.206;-6.106;2022-12-07T13:36:52;102301.16;;;19.88;52.58
58686;BME280;44465;53.206;-6.106;2022-12-07T13:39:20;102280.00;;;19.77;52.41
58686;BME280;44465;53.206;-6.106;2022-12-07T13:42:15;102288.78;;;19.82;52.66
58686;BME280;44465;53.206;-6.106;2022-12-07T13:44:54;102293.09;;;19.90;52.59
58686;BME280;44465;53.206;-6.106;2022-12-07T13:47:47;102293.88;;;19.93;52.40
58686;BME280;44465;53.206;-6.106;2022-12-07T13:50:30;102276.28;;;19.84;52.19
58686;BME280;44465;53.206;-6.106;2022-12-07T13:52:58;102295.59;;;19.96;52.66
58686;BME280;44465;53.206;-6.106;2022-12-07T13:55:26;102290.13;;;20.01;52.34
58686;BME280;44465;53.206;-6.106;2022-12-07T13:58:08;102276.97;;;19.93;52.33
58686;BME280;44465;53.206;-6.106;2022-12-07T14:00:37;102277.03;;;19.90;52.08
58686;BME280;44465;53.206;-6.106;2022-12-07T14:03:31;102261.09;;;19.87;52.42
58686;BME280;44465;53.206;-6.106;2022-12-07T14:06:17;102276.06;;;19.94;52.53
58686;BME280;44465;53.206;-6.106;2022-12-07T14:08:46;102266.19;;;19.96;52.92
58686;BME280;44465;53.206;-6.106;2022-12-07T14:11:20;102267.69;;;20.06;52.69
58686;BME280;44465;53.206;-6.106;2022-12-07T14:17:33;102258.00;;;20.02;53.01
58686;BME280;44465;53.206;-6.106;2022-12-07T14:20:01;102256.03;;;20.09;52.79
58686;BME280;44465;53.206;-6.106;2022-12-07T14:22:53;102257.22;;;19.98;52.78
58686;BME280;44465;53.206;-6.106;2022-12-07T14:25:45;102242.94;;;19.98;53.15
58686;BME280;44465;53.206;-6.106;2022-12-07T14:28:45;102249.00;;;20.05;53.05
58686;BME280;44465;53.206;-6.106;2022-12-07T14:31:34;102240.91;;;20.08;52.75
58686;BME280;44465;53.206;-6.106;2022-12-07T14:34:00;102255.75;;;20.18;52.74
58686;BME280;44465;53.206;-6.106;2022-12-07T14:36:31;102234.56;;;20.12;52.64
58686;BME280;44465;53.206;-6.106;2022-12-07T14:38:57;102245.78;;;20.25;52.66
58686;BME280;44465;53.206;-6.106;2022-12-07T14:41:28;102234.31;;;20.20;52.66
58686;BME280;44465;53.206;-6.106;2022-12-07T14:44:13;102236.72;;;20.29;52.87
58686;BME280;44465;53.206;-6.106;2022-12-07T14:46:38;102233.22;;;20.27;52.68
58686;BME280;44465;53.206;-6.106;2022-12-07T14:49:04;102229.72;;;20.25;52.71
58686;BME280;44465;53.206;-6.106;2022-12-07T14:51:53;102227.06;;;20.23;52.52
58686;BME280;44465;53.206;-6.106;2022-12-07T14:54:20;102220.78;;;20.26;52.47
58686;BME280;44465;53.206;-6.106;2022-12-07T14:57:04;102216.28;;;20.26;52.71
58686;BME280;44465;53.206;-6.106;2022-12-07T14:59:36;102216.50;;;20.19;52.67
58686;BME280;44465;53.206;-6.106;2022-12-07T15:02:01;102189.25;;;20.06;52.72
58686;BME280;44465;53.206;-6.106;2022-12-07T15:04:30;102196.28;;;20.08;52.54
58686;BME280;44465;53.206;-6.106;2022-12-07T15:07:01;102191.00;;;20.07;52.64